sensor_id;sensor_type;location;lat;lon;timestamp;P1;durP1;ratioP1;P2;durP2;ratioP2
19863;SDS011;10094;48.820;9.226;2022-08-03T00:02:28;4.50;;;4.10;;
19863;SDS011;10094;48.820;9.226;2022-08-03T00:09:10;5.63;;;4.30;;
19863;SDS011;10094;48.820;9.226;2022-08-03T00:15:54;6.43;;;4.07;;
19863;SDS011;10094;48.820;9.226;2022-08-03T00:22:36;5.85;;;4.90;;
19863;SDS011;10094;48.820;9.226;2022-08-03T00:29:19;9.13;;;4.68;;
19863;SDS011;10094;48.820;9.226;2022-08-03T00:36:02;6.35;;;4.53;;
19863;SDS011;10094;48.820;9.226;2022-08-03T00:42:52;5.57;;;5.00;;
19863;SDS011;10094;48.820;9.226;2022-08-03T00:49:39;5.95;;;5.25;;
19863;SDS011;10094;48.820;9.226;2022-08-03T00:56:22;6.53;;;5.93;;
19863;SDS011;10094;48.820;9.226;2022-08-03T01:03:05;6.20;;;5.45;;
19863;SDS011;10094;48.820;9.226;2022-08-03T01:09:52;7.80;;;5.45;;
19863;SDS011;10094;48.820;9.226;2022-08-03T01:24:49;5.57;;;5.05;;
19863;SDS011;10094;48.820;9.226;2022-08-03T01:31:18;6.47;;;5.75;;
19863;SDS011;10094;48.820;9.226;2022-08-03T01:38:06;7.00;;;5.55;;
19863;SDS011;10094;48.820;9.226;2022-08-03T01:44:52;5.72;;;5.05;;
19863;SDS011;10094;48.820;9.226;2022-08-03T01:52:16;5.93;;;5.13;;
19863;SDS011;10094;48.820;9.226;2022-08-03T01:59:00;6.47;;;5.00;;
19863;SDS011;10094;48.820;9.226;2022-08-03T02:05:44;6.60;;;5.05;;
19863;SDS011;10094;48.820;9.226;2022-08-03T02:12:28;5.22;;;4.50;;
19863;SDS011;10094;48.820;9.226;2022-08-03T02:19:14;5.65;;;4.88;;
19863;SDS011;10094;48.820;9.226;2022-08-03T02:26:00;5.30;;;4.40;;
19863;SDS011;10094;48.820;9.226;2022-08-03T02:32:47;4.25;;;3.85;;
19863;SDS011;10094;48.820;9.226;2022-08-03T02:39:35;4.10;;;3.70;;
19863;SDS011;10094;48.820;9.226;2022-08-03T02:46:21;4.78;;;3.92;;
19863;SDS011;10094;48.820;9.226;2022-08-03T02:53:07;4.70;;;4.18;;
19863;SDS011;10094;48.820;9.226;2022-08-03T02:59:51;5.78;;;5.07;;
19863;SDS011;10094;48.820;9.226;2022-08-03T03:06:35;6.68;;;5.93;;
19863;SDS011;10094;48.820;9.226;2022-08-03T03:13:20;7.53;;;6.72;;
19863;SDS011;10094;48.820;9.226;2022-08-03T03:20:03;7.53;;;6.38;;
19863;SDS011;10094;48.820;9.226;2022-08-03T03:26:48;7.25;;;6.28;;
19863;SDS011;10094;48.820;9.226;2022-08-03T03:33:34;7.18;;;6.47;;
19863;SDS011;10094;48.820;9.226;2022-08-03T03:40:18;9.40;;;6.30;;
19863;SDS011;10094;48.820;9.226;2022-08-03T03:47:00;9.15;;;6.85;;
19863;SDS011;10094;48.820;9.226;2022-08-03T03:53:56;10.45;;;7.50;;
19863;SDS011;10094;48.820;9.226;2022-08-03T04:08:18;8.65;;;5.35;;
19863;SDS011;10094;48.820;9.226;2022-08-03T04:15:19;7.22;;;6.50;;
19863;SDS011;10094;48.820;9.226;2022-08-03T04:22:10;7.47;;;6.63;;
19863;SDS011;10094;48.820;9.226;2022-08-03T04:28:54;10.23;;;5.93;;
19863;SDS011;10094;48.820;9.226;2022-08-03T04:35:39;7.30;;;6.28;;
19863;SDS011;10094;48.820;9.226;2022-08-03T04:42:43;9.98;;;6.70;;
19863;SDS011;10094;48.820;9.226;2022-08-03T04:49:27;6.32;;;5.70;;
19863;SDS011;10094;48.820;9.226;2022-08-03T04:56:11;7.07;;;5.32;;
19863;SDS011;10094;48.820;9.226;2022-08-03T05:02:53;6.40;;;5.80;;
19863;SDS011;10094;48.820;9.226;2022-08-03T05:09:36;7.65;;;5.57;;
19863;SDS011;10094;48.820;9.226;2022-08-03T05:16:33;6.55;;;5.85;;
19863;SDS011;10094;48.820;9.226;2022-08-03T05:23:15;6.93;;;5.53;;
19863;SDS011;10094;48.820;9.226;2022-08-03T05:29:58;8.45;;;4.30;;
19863;SDS011;10094;48.820;9.226;2022-08-03T05:37:01;6.93;;;3.95;;
19863;SDS011;10094;48.820;9.226;2022-08-03T05:43:43;4.60;;;4.20;;
19863;SDS011;10094;48.820;9.226;2022-08-03T05:50:26;6.88;;;3.92;;
19863;SDS011;10094;48.820;9.226;2022-08-03T05:57:08;3.60;;;3.30;;
19863;SDS011;10094;48.820;9.226;2022-08-03T06:03:51;3.63;;;3.33;;
19863;SDS011;10094;48.820;9.226;2022-08-03T06:10:34;4.40;;;4.00;;
19863;SDS011;10094;48.820;9.226;2022-08-03T06:17:19;6.32;;;3.78;;
19863;SDS011;10094;48.820;9.226;2022-08-03T06:24:01;5.55;;;3.90;;
19863;SDS011;10094;48.820;9.226;2022-08-03T06:30:47;11.27;;;4.13;;
19863;SDS011;10094;48.820;9.226;2022-08-03T06:37:30;4.05;;;3.42;;
19863;SDS011;10094;48.820;9.226;2022-08-03T06:44:22;4.30;;;3.90;;
19863;SDS011;10094;48.820;9.226;2022-08-03T06:51:04;3.92;;;3.53;;
19863;SDS011;10094;48.820;9.226;2022-08-03T06:57:47;4.20;;;3.50;;
19863;SDS011;10094;48.820;9.226;2022-08-03T07:04:30;4.90;;;3.83;;
19863;SDS011;10094;48.820;9.226;2022-08-03T07:11:12;9.02;;;5.07;;
19863;SDS011;10094;48.820;9.226;2022-08-03T07:17:54;5.97;;;4.32;;
19863;SDS011;10094;48.820;9.226;2022-08-03T07:24:37;2.83;;;2.53;;
19863;SDS011;10094;48.820;9.226;2022-08-03T07:31:19;2.50;;;2.30;;
19863;SDS011;10094;48.820;9.226;2022-08-03T07:38:02;4.53;;;2.72;;
19863;SDS011;10094;48.820;9.226;2022-08-03T07:44:44;2.97;;;2.63;;
19863;SDS011;10094;48.820;9.226;2022-08-03T07:51:26;3.30;;;2.85;;
19863;SDS011;10094;48.820;9.226;2022-08-03T07:58:09;2.80;;;2.30;;
19863;SDS011;10094;48.820;9.226;2022-08-03T08:05:00;7.47;;;2.20;;
19863;SDS011;10094;48.820;9.226;2022-08-03T08:11:46;5.70;;;2.90;;
19863;SDS011;10094;48.820;9.226;2022-08-03T08:18:30;3.65;;;2.50;;
19863;SDS011;10094;48.820;9.226;2022-08-03T08:25:13;3.33;;;2.35;;
19863;SDS011;10094;48.820;9.226;2022-08-03T08:32:00;5.50;;;2.60;;
19863;SDS011;10094;48.820;9.226;2022-08-03T08:38:43;1.80;;;1.60;;
19863;SDS011;10094;48.820;9.226;2022-08-03T08:45:26;2.92;;;2.00;;
19863;SDS011;10094;48.820;9.226;2022-08-03T08:52:08;2.45;;;1.98;;
19863;SDS011;10094;48.820;9.226;2022-08-03T08:59:06;6.47;;;2.20;;
19863;SDS011;10094;48.820;9.226;2022-08-03T09:05:49;1.65;;;1.50;;
19863;SDS011;10094;48.820;9.226;2022-08-03T09:13:08;1.58;;;1.48;;
19863;SDS011;10094;48.820;9.226;2022-08-03T09:20:04;3.08;;;1.70;;
19863;SDS011;10094;48.820;9.226;2022-08-03T09:26:50;3.55;;;2.00;;
19863;SDS011;10094;48.820;9.226;2022-08-03T09:33:45;3.75;;;1.92;;
19863;SDS011;10094;48.820;9.226;2022-08-03T09:40:35;3.80;;;1.70;;
19863;SDS011;10094;48.820;9.226;2022-08-03T09:47:28;2.65;;;1.88;;
19863;SDS011;10094;48.820;9.226;2022-08-03T09:54:12;1.65;;;1.45;;
19863;SDS011;10094;48.820;9.226;2022-08-03T10:01:15;9.77;;;2.03;;
19863;SDS011;10094;48.820;9.226;2022-08-03T10:08:15;4.40;;;1.90;;
19863;SDS011;10094;48.820;9.226;2022-08-03T10:14:59;4.13;;;2.00;;
19863;SDS011;10094;48.820;9.226;2022-08-03T10:21:46;1.80;;;1.70;;
19863;SDS011;10094;48.820;9.226;2022-08-03T10:28:35;1.90;;;1.70;;
19863;SDS011;10094;48.820;9.226;2022-08-03T10:35:26;3.10;;;2.10;;
19863;SDS011;10094;48.820;9.226;2022-08-03T10:42:10;4.35;;;1.80;;
19863;SDS011;10094;48.820;9.226;2022-08-03T10:48:55;2.00;;;1.85;;
19863;SDS011;10094;48.820;9.226;2022-08-03T10:55:39;3.78;;;2.20;;
19863;SDS011;10094;48.820;9.226;2022-08-03T11:03:12;3.25;;;2.38;;
19863;SDS011;10094;48.820;9.226;2022-08-03T11:09:55;2.30;;;2.10;;
19863;SDS011;10094;48.820;9.226;2022-08-03T11:16:42;2.53;;;2.10;;
19863;SDS011;10094;48.820;9.226;2022-08-03T11:23:46;3.78;;;2.33;;
19863;SDS011;10094;48.820;9.226;2022-08-03T11:30:46;2.47;;;2.22;;
19863;SDS011;10094;48.820;9.226;2022-08-03T11:37:28;2.22;;;2.10;;
19863;SDS011;10094;48.820;9.226;2022-08-03T11:51:22;6.43;;;2.58;;
19863;SDS011;10094;48.820;9.226;2022-08-03T11:58:18;2.45;;;2.25;;
19863;SDS011;10094;48.820;9.226;2022-08-03T12:05:31;2.75;;;2.13;;
19863;SDS011;10094;48.820;9.226;2022-08-03T12:13:10;2.30;;;2.10;;
19863;SDS011;10094;48.820;9.226;2022-08-03T12:20:15;3.55;;;2.35;;
19863;SDS011;10094;48.820;9.226;2022-08-03T12:27:25;2.17;;;1.98;;
19863;SDS011;10094;48.820;9.226;2022-08-03T12:34:10;3.33;;;2.25;;
19863;SDS011;10094;48.820;9.226;2022-08-03T12:40:56;2.22;;;2.00;;
19863;SDS011;10094;48.820;9.226;2022-08-03T12:47:54;4.75;;;1.85;;
19863;SDS011;10094;48.820;9.226;2022-08-03T12:54:40;3.95;;;2.00;;
19863;SDS011;10094;48.820;9.226;2022-08-03T13:01:24;2.55;;;1.80;;
19863;SDS011;10094;48.820;9.226;2022-08-03T13:08:21;2.90;;;2.08;;
19863;SDS011;10094;48.820;9.226;2022-08-03T13:15:05;2.20;;;2.00;;
19863;SDS011;10094;48.820;9.226;2022-08-03T13:21:49;3.17;;;2.28;;
19863;SDS011;10094;48.820;9.226;2022-08-03T13:28:45;2.88;;;2.00;;
19863;SDS011;10094;48.820;9.226;2022-08-03T13:35:27;2.50;;;1.83;;
19863;SDS011;10094;48.820;9.226;2022-08-03T13:42:10;2.00;;;1.80;;
19863;SDS011;10094;48.820;9.226;2022-08-03T13:48:53;4.05;;;1.98;;
19863;SDS011;10094;48.820;9.226;2022-08-03T13:55:35;1.80;;;1.65;;
19863;SDS011;10094;48.820;9.226;2022-08-03T14:02:18;2.10;;;1.92;;
19863;SDS011;10094;48.820;9.226;2022-08-03T14:09:00;4.72;;;2.47;;
19863;SDS011;10094;48.820;9.226;2022-08-03T14:15:43;3.75;;;2.20;;
19863;SDS011;10094;48.820;9.226;2022-08-03T14:22:31;3.42;;;2.08;;
19863;SDS011;10094;48.820;9.226;2022-08-03T14:29:14;3.15;;;1.90;;
19863;SDS011;10094;48.820;9.226;2022-08-03T14:35:56;2.20;;;2.03;;
19863;SDS011;10094;48.820;9.226;2022-08-03T14:42:39;2.55;;;2.22;;
19863;SDS011;10094;48.820;9.226;2022-08-03T14:49:21;3.78;;;2.08;;
19863;SDS011;10094;48.820;9.226;2022-08-03T14:56:23;2.38;;;2.13;;
19863;SDS011;10094;48.820;9.226;2022-08-03T15:03:06;4.95;;;2.22;;
19863;SDS011;10094;48.820;9.226;2022-08-03T15:09:48;2.38;;;2.10;;
19863;SDS011;10094;48.820;9.226;2022-08-03T15:16:31;2.20;;;2.00;;
19863;SDS011;10094;48.820;9.226;2022-08-03T15:23:14;2.00;;;1.90;;
19863;SDS011;10094;48.820;9.226;2022-08-03T15:29:57;2.55;;;2.00;;
19863;SDS011;10094;48.820;9.226;2022-08-03T15:36:51;2.13;;;1.92;;
19863;SDS011;10094;48.820;9.226;2022-08-03T15:43:33;4.72;;;2.15;;
19863;SDS011;10094;48.820;9.226;2022-08-03T15:50:19;2.10;;;1.90;;
19863;SDS011;10094;48.820;9.226;2022-08-03T15:57:02;2.10;;;1.90;;
19863;SDS011;10094;48.820;9.226;2022-08-03T16:03:44;3.13;;;2.85;;
19863;SDS011;10094;48.820;9.226;2022-08-03T16:10:27;2.42;;;1.70;;
19863;SDS011;10094;48.820;9.226;2022-08-03T16:17:11;3.70;;;2.20;;
19863;SDS011;10094;48.820;9.226;2022-08-03T16:23:53;2.25;;;1.83;;
19863;SDS011;10094;48.820;9.226;2022-08-03T16:30:37;2.97;;;1.90;;
19863;SDS011;10094;48.820;9.226;2022-08-03T16:37:20;2.22;;;1.80;;
19863;SDS011;10094;48.820;9.226;2022-08-03T16:44:19;1.75;;;1.65;;
19863;SDS011;10094;48.820;9.226;2022-08-03T16:51:02;1.85;;;1.63;;
19863;SDS011;10094;48.820;9.226;2022-08-03T16:57:44;5.65;;;2.05;;
19863;SDS011;10094;48.820;9.226;2022-08-03T17:04:41;5.15;;;3.95;;
19863;SDS011;10094;48.820;9.226;2022-08-03T17:11:25;3.35;;;1.90;;
19863;SDS011;10094;48.820;9.226;2022-08-03T17:18:10;2.05;;;1.48;;
19863;SDS011;10094;48.820;9.226;2022-08-03T17:25:02;2.85;;;1.45;;
19863;SDS011;10094;48.820;9.226;2022-08-03T17:31:50;1.98;;;1.70;;
19863;SDS011;10094;48.820;9.226;2022-08-03T17:38:35;2.17;;;1.83;;
19863;SDS011;10094;48.820;9.226;2022-08-03T17:45:19;2.10;;;1.90;;
19863;SDS011;10094;48.820;9.226;2022-08-03T17:52:03;2.28;;;1.88;;
19863;SDS011;10094;48.820;9.226;2022-08-03T17:58:56;1.85;;;1.58;;
19863;SDS011;10094;48.820;9.226;2022-08-03T18:05:50;2.15;;;1.95;;
19863;SDS011;10094;48.820;9.226;2022-08-03T18:19:40;2.25;;;2.05;;
19863;SDS011;10094;48.820;9.226;2022-08-03T18:26:42;4.55;;;1.98;;
19863;SDS011;10094;48.820;9.226;2022-08-03T18:34:02;3.58;;;2.35;;
19863;SDS011;10094;48.820;9.226;2022-08-03T18:41:05;3.28;;;2.08;;
19863;SDS011;10094;48.820;9.226;2022-08-03T18:55:02;2.55;;;1.85;;
19863;SDS011;10094;48.820;9.226;2022-08-03T19:02:06;2.72;;;2.25;;
19863;SDS011;10094;48.820;9.226;2022-08-03T19:09:06;4.40;;;2.38;;
19863;SDS011;10094;48.820;9.226;2022-08-03T19:16:16;6.10;;;5.60;;
19863;SDS011;10094;48.820;9.226;2022-08-03T19:23:08;9.60;;;2.80;;
19863;SDS011;10094;48.820;9.226;2022-08-03T19:29:55;3.08;;;2.58;;
19863;SDS011;10094;48.820;9.226;2022-08-03T19:36:44;5.13;;;2.83;;
19863;SDS011;10094;48.820;9.226;2022-08-03T19:44:05;8.38;;;2.65;;
19863;SDS011;10094;48.820;9.226;2022-08-03T19:50:51;3.33;;;2.60;;
19863;SDS011;10094;48.820;9.226;2022-08-03T19:57:36;3.25;;;2.60;;
19863;SDS011;10094;48.820;9.226;2022-08-03T20:04:19;5.75;;;3.28;;
19863;SDS011;10094;48.820;9.226;2022-08-03T20:11:02;8.77;;;3.25;;
19863;SDS011;10094;48.820;9.226;2022-08-03T20:17:47;5.57;;;3.10;;
19863;SDS011;10094;48.820;9.226;2022-08-03T20:24:39;5.20;;;3.00;;
19863;SDS011;10094;48.820;9.226;2022-08-03T20:31:31;6.05;;;2.80;;
19863;SDS011;10094;48.820;9.226;2022-08-03T20:38:17;10.45;;;8.45;;
19863;SDS011;10094;48.820;9.226;2022-08-03T20:45:00;7.28;;;6.07;;
19863;SDS011;10094;48.820;9.226;2022-08-03T20:51:48;5.90;;;3.50;;
19863;SDS011;10094;48.820;9.226;2022-08-03T20:58:34;3.60;;;2.92;;
19863;SDS011;10094;48.820;9.226;2022-08-03T21:05:22;5.32;;;3.33;;
19863;SDS011;10094;48.820;9.226;2022-08-03T21:12:33;4.05;;;2.70;;
19863;SDS011;10094;48.820;9.226;2022-08-03T21:19:22;4.95;;;4.05;;
19863;SDS011;10094;48.820;9.226;2022-08-03T21:26:06;8.82;;;3.97;;
19863;SDS011;10094;48.820;9.226;2022-08-03T21:32:52;8.07;;;3.55;;
19863;SDS011;10094;48.820;9.226;2022-08-03T21:39:36;3.40;;;3.05;;
19863;SDS011;10094;48.820;9.226;2022-08-03T21:46:33;4.15;;;3.35;;
19863;SDS011;10094;48.820;9.226;2022-08-03T21:53:17;3.97;;;2.90;;
19863;SDS011;10094;48.820;9.226;2022-08-03T22:00:10;5.13;;;3.10;;
19863;SDS011;10094;48.820;9.226;2022-08-03T22:08:12;4.22;;;3.47;;
19863;SDS011;10094;48.820;9.226;2022-08-03T22:14:56;4.05;;;3.00;;
19863;SDS011;10094;48.820;9.226;2022-08-03T22:21:45;7.30;;;3.40;;
19863;SDS011;10094;48.820;9.226;2022-08-03T22:28:29;3.55;;;2.60;;
19863;SDS011;10094;48.820;9.226;2022-08-03T22:35:13;3.70;;;3.40;;
19863;SDS011;10094;48.820;9.226;2022-08-03T22:41:56;2.97;;;2.17;;
19863;SDS011;10094;48.820;9.226;2022-08-03T22:48:42;2.53;;;2.30;;
19863;SDS011;10094;48.820;9.226;2022-08-03T22:55:27;3.13;;;2.40;;
19863;SDS011;10094;48.820;9.226;2022-08-03T23:02:19;6.63;;;3.58;;
19863;SDS011;10094;48.820;9.226;2022-08-03T23:09:05;3.40;;;3.00;;
19863;SDS011;10094;48.820;9.226;2022-08-03T23:15:50;5.97;;;2.58;;
19863;SDS011;10094;48.820;9.226;2022-08-03T23:22:37;3.15;;;2.65;;
19863;SDS011;10094;48.820;9.226;2022-08-03T23:29:23;4.60;;;2.72;;
19863;SDS011;10094;48.820;9.226;2022-08-03T23:36:08;5.70;;;2.53;;
19863;SDS011;10094;48.820;9.226;2022-08-03T23:43:12;4.80;;;3.55;;
19863;SDS011;10094;48.820;9.226;2022-08-03T23:50:16;3.50;;;2.70;;
